Time;durP1;ratioP1;P1;durP2;ratioP2;P2;SDS_P1;SDS_P2;PMS_P1;PMS_P2;Temp;Humidity;BMP_temperature;BMP_pressure;BME280_temperature;BME280_humidity;BME280_pressure;Samples;Min_cycle;Max_cycle;Signal;HPM_P1;HPM_P2
2021/05/09 00:01:03;;;;;;;14.27;8.02;;;;;;;;;;5013007;28;37804;-77
2021/05/09 00:03:31;;;;;;;11.27;7.90;;;;;;;;;;5030293;28;39539;-78
2021/05/09 00:05:57;;;;;;;10.85;8.27;;;;;;;;;;5029475;28;38327;-77
2021/05/09 00:08:24;;;;;;;13.65;7.97;;;;;;;;;;5029300;28;37805;-77
2021/05/09 00:10:50;;;;;;;10.23;7.93;;;;;;;;;;5027707;28;39619;-77
2021/05/09 00:13:16;;;;;;;13.15;7.63;;;;;;;;;;5029517;28;38452;-77
2021/05/09 00:15:43;;;;;;;11.95;7.65;;;;;;;;;;5010962;28;38918;-77
2021/05/09 00:18:09;;;;;;;16.42;8.55;;;;;;;;;;5009550;28;37599;-78
2021/05/09 00:20:36;;;;;;;11.05;7.55;;;;;;;;;;5008717;28;40883;-78
2021/05/09 00:23:02;;;;;;;11.25;8.88;;;;;;;;;;5009403;28;39266;-77
2021/05/09 00:25:29;;;;;;;14.95;8.57;;;;;;;;;;5010043;28;38429;-78
2021/05/09 00:27:55;;;;;;;17.38;9.63;;;;;;;;;;5009444;28;37257;-77
2021/05/09 00:30:22;;;;;;;16.58;9.98;;;;;;;;;;5007918;28;39594;-77
2021/05/09 00:32:48;;;;;;;14.77;10.07;;;;;;;;;;5011016;28;38638;-77
2021/05/09 00:35:14;;;;;;;15.52;10.85;;;;;;;;;;4993093;28;39895;-77
2021/05/09 00:37:41;;;;;;;14.73;9.85;;;;;;;;;;4991684;28;38379;-78
2021/05/09 00:40:08;;;;;;;16.20;10.40;;;;;;;;;;5010499;28;38464;-77
2021/05/09 00:42:35;;;;;;;13.43;10.25;;;;;;;;;;4991426;28;39487;-78
2021/05/09 00:45:01;;;;;;;12.15;9.23;;;;;;;;;;4992438;28;38862;-78
2021/05/09 00:47:28;;;;;;;15.93;11.40;;;;;;;;;;5007330;28;38710;-77
2021/05/09 00:49:54;;;;;;;12.93;9.52;;;;;;;;;;4992381;28;38082;-78
2021/05/09 00:52:20;;;;;;;18.48;11.48;;;;;;;;;;5000814;28;39017;-78
2021/05/09 00:54:52;;;;;;;11.15;9.95;;;;;;;;;;5029749;28;38434;-78
2021/05/09 00:57:19;;;;;;;14.13;9.47;;;;;;;;;;5026622;28;36383;-77
2021/05/09 00:59:46;;;;;;;16.73;9.70;;;;;;;;;;5027359;28;40529;-78
2021/05/09 01:02:13;;;;;;;16.17;11.75;;;;;;;;;;5026819;28;39159;-77
2021/05/09 01:04:40;;;;;;;14.27;8.50;;;;;;;;;;5028846;28;38486;-78
2021/05/09 01:07:07;;;;;;;13.45;8.93;;;;;;;;;;5027356;28;38151;-77
2021/05/09 01:09:34;;;;;;;14.68;8.88;;;;;;;;;;5017342;28;39535;-78
2021/05/09 01:12:00;;;;;;;17.42;9.18;;;;;;;;;;5006263;28;40377;-78
2021/05/09 01:14:27;;;;;;;12.93;7.78;;;;;;;;;;5007767;28;40530;-77
2021/05/09 01:16:53;;;;;;;12.38;7.63;;;;;;;;;;4992395;28;38447;-77
2021/05/09 01:19:19;;;;;;;16.05;7.50;;;;;;;;;;5007126;28;40067;-77
2021/05/09 01:21:47;;;;;;;10.45;7.03;;;;;;;;;;5007608;28;38605;-77
2021/05/09 01:24:13;;;;;;;13.93;7.10;;;;;;;;;;5008287;28;39039;-78
2021/05/09 01:26:41;;;;;;;16.48;7.63;;;;;;;;;;5008675;28;37097;-78
2021/05/09 01:29:07;;;;;;;16.45;7.53;;;;;;;;;;5007360;28;40726;-77
2021/05/09 01:31:33;;;;;;;13.73;6.35;;;;;;;;;;5008349;28;39675;-77
2021/05/09 01:34:00;;;;;;;14.10;6.78;;;;;;;;;;5009180;28;38353;-77
2021/05/09 01:36:26;;;;;;;11.88;6.72;;;;;;;;;;5008078;28;37080;-78
2021/05/09 01:38:54;;;;;;;13.50;6.78;;;;;;;;;;5008268;28;38682;-77
2021/05/09 01:41:21;;;;;;;12.27;6.40;;;;;;;;;;5006697;28;39117;-77
2021/05/09 01:43:48;;;;;;;13.48;6.60;;;;;;;;;;5007395;28;39248;-77
2021/05/09 01:46:14;;;;;;;9.93;5.90;;;;;;;;;;5005751;28;36972;-77
2021/05/09 01:48:41;;;;;;;13.95;6.20;;;;;;;;;;5008066;28;39819;-77
2021/05/09 01:51:07;;;;;;;11.18;6.22;;;;;;;;;;5007566;28;39164;-77
2021/05/09 01:53:33;;;;;;;17.02;6.55;;;;;;;;;;4989271;28;39025;-76
2021/05/09 01:56:00;;;;;;;11.98;5.57;;;;;;;;;;5007706;28;37869;-77
2021/05/09 01:58:26;;;;;;;12.50;6.05;;;;;;;;;;4990146;28;39121;-77
2021/05/09 02:00:53;;;;;;;11.55;6.18;;;;;;;;;;5002861;28;38760;-76
2021/05/09 02:03:19;;;;;;;9.32;5.70;;;;;;;;;;5027593;28;38496;-76
2021/05/09 02:05:45;;;;;;;11.73;5.18;;;;;;;;;;5028244;28;36857;-77
2021/05/09 02:08:12;;;;;;;14.20;6.30;;;;;;;;;;5008420;28;38622;-76
2021/05/09 02:10:38;;;;;;;11.85;5.95;;;;;;;;;;5008079;28;38218;-77
2021/05/09 02:13:05;;;;;;;9.98;5.45;;;;;;;;;;5005747;28;40123;-76
2021/05/09 02:15:32;;;;;;;10.52;5.72;;;;;;;;;;5005063;28;38580;-77
2021/05/09 02:17:58;;;;;;;9.07;5.47;;;;;;;;;;5008880;28;39272;-77
2021/05/09 02:20:25;;;;;;;10.02;5.80;;;;;;;;;;5005347;28;39126;-77
2021/05/09 02:22:51;;;;;;;10.65;6.00;;;;;;;;;;5005413;28;38742;-76
2021/05/09 02:25:18;;;;;;;10.65;5.70;;;;;;;;;;5007960;28;37742;-76
2021/05/09 02:27:44;;;;;;;10.23;5.88;;;;;;;;;;5006198;28;40968;-76
2021/05/09 02:30:10;;;;;;;14.05;6.72;;;;;;;;;;5006952;28;38765;-76
2021/05/09 02:32:37;;;;;;;9.77;5.88;;;;;;;;;;5008183;28;38046;-77
2021/05/09 02:35:03;;;;;;;9.52;5.13;;;;;;;;;;5007346;28;36608;-77
2021/05/09 02:37:30;;;;;;;14.70;5.53;;;;;;;;;;5004785;28;46723;-77
2021/05/09 02:39:56;;;;;;;9.52;5.95;;;;;;;;;;5006118;28;39203;-77
2021/05/09 02:42:23;;;;;;;12.82;6.85;;;;;;;;;;5005980;28;20869;-77
2021/05/09 02:44:50;;;;;;;9.90;5.88;;;;;;;;;;5007786;28;36813;-77
2021/05/09 02:47:29;;;;;;;10.52;5.72;;;;;;;;;;5005003;28;37806;-76
2021/05/09 02:50:06;;;;;;;9.60;5.45;;;;;;;;;;5007469;28;38857;-76
2021/05/09 02:52:32;;;;;;;8.00;5.05;;;;;;;;;;5020229;28;48536;-76
2021/05/09 02:54:59;;;;;;;7.20;5.53;;;;;;;;;;5026916;28;37920;-77
2021/05/09 02:57:25;;;;;;;14.65;6.35;;;;;;;;;;5013597;28;40747;-77
2021/05/09 02:59:52;;;;;;;10.48;5.13;;;;;;;;;;5004487;28;38920;-77
2021/05/09 03:02:18;;;;;;;8.35;5.40;;;;;;;;;;5004721;28;38178;-77
2021/05/09 03:04:44;;;;;;;10.23;5.30;;;;;;;;;;5004816;28;37848;-77
2021/05/09 03:07:11;;;;;;;11.43;5.85;;;;;;;;;;5004069;28;39664;-77
2021/05/09 03:09:37;;;;;;;12.43;6.05;;;;;;;;;;4986212;28;37594;-77
2021/05/09 03:12:04;;;;;;;10.43;5.13;;;;;;;;;;4983888;28;39812;-77
2021/05/09 03:14:30;;;;;;;9.98;5.53;;;;;;;;;;4987423;28;37741;-77
2021/05/09 03:16:57;;;;;;;8.23;5.00;;;;;;;;;;4990516;28;40608;-76
2021/05/09 03:19:23;;;;;;;8.30;5.10;;;;;;;;;;5006706;28;39534;-77
2021/05/09 03:21:49;;;;;;;9.75;4.72;;;;;;;;;;5005941;28;38973;-77
2021/05/09 03:24:16;;;;;;;8.88;5.13;;;;;;;;;;5004973;28;37092;-77
2021/05/09 03:26:42;;;;;;;7.68;5.18;;;;;;;;;;5004610;28;43096;-77
2021/05/09 03:29:09;;;;;;;8.98;4.60;;;;;;;;;;5006778;28;39518;-76
2021/05/09 03:31:35;;;;;;;9.23;4.63;;;;;;;;;;5003325;28;38749;-77
2021/05/09 03:34:02;;;;;;;10.23;5.47;;;;;;;;;;5005249;28;37715;-77
2021/05/09 03:36:28;;;;;;;10.93;5.22;;;;;;;;;;4988587;28;47341;-77
2021/05/09 03:38:55;;;;;;;8.57;5.28;;;;;;;;;;5005550;28;39763;-77
2021/05/09 03:41:22;;;;;;;10.27;5.15;;;;;;;;;;5004271;28;37064;-77
2021/05/09 03:43:49;;;;;;;5.68;4.30;;;;;;;;;;5007222;28;37082;-77
2021/05/09 03:46:16;;;;;;;8.68;5.05;;;;;;;;;;5005554;28;40020;-76
2021/05/09 03:48:43;;;;;;;10.43;5.40;;;;;;;;;;5007210;28;39187;-76
2021/05/09 03:51:09;;;;;;;9.60;4.72;;;;;;;;;;4987537;28;38933;-76
2021/05/09 03:53:35;;;;;;;7.78;5.15;;;;;;;;;;4987818;28;38382;-77
2021/05/09 03:56:02;;;;;;;12.93;5.20;;;;;;;;;;4988871;28;40355;-77
2021/05/09 03:58:28;;;;;;;9.88;4.95;;;;;;;;;;5009582;28;48820;-77
2021/05/09 04:00:54;;;;;;;7.78;5.15;;;;;;;;;;5025790;28;38416;-77
2021/05/09 04:03:25;;;;;;;10.45;5.63;;;;;;;;;;5026881;28;37109;-77
2021/05/09 04:05:52;;;;;;;13.63;6.30;;;;;;;;;;5007817;28;39740;-77
2021/05/09 04:08:19;;;;;;;7.68;5.15;;;;;;;;;;5026250;28;39494;-77
2021/05/09 04:10:46;;;;;;;8.00;4.65;;;;;;;;;;5007454;28;38699;-77
2021/05/09 04:13:12;;;;;;;8.35;4.78;;;;;;;;;;5011496;28;36113;-77
2021/05/09 04:15:39;;;;;;;7.95;4.90;;;;;;;;;;4995760;28;40084;-77
2021/05/09 04:18:05;;;;;;;6.93;4.80;;;;;;;;;;4991086;28;39820;-76
2021/05/09 04:20:32;;;;;;;9.73;4.65;;;;;;;;;;4987075;28;38972;-77
2021/05/09 04:23:08;;;;;;;11.13;4.82;;;;;;;;;;4972348;28;37626;-77
2021/05/09 04:25:34;;;;;;;7.32;4.38;;;;;;;;;;4986679;28;46887;-77
2021/05/09 04:28:00;;;;;;;8.45;5.38;;;;;;;;;;4989442;28;38797;-76
2021/05/09 04:30:27;;;;;;;8.45;5.03;;;;;;;;;;4970116;28;39272;-76
2021/05/09 04:32:57;;;;;;;7.93;4.75;;;;;;;;;;4996789;28;36950;-77
2021/05/09 04:35:23;;;;;;;8.43;4.35;;;;;;;;;;4989662;28;40490;-76
2021/05/09 04:37:50;;;;;;;8.95;4.97;;;;;;;;;;4990919;28;37016;-77
2021/05/09 04:40:16;;;;;;;9.73;5.20;;;;;;;;;;4990257;28;38840;-77
2021/05/09 04:42:43;;;;;;;7.53;4.32;;;;;;;;;;5009110;28;36683;-77
2021/05/09 04:45:10;;;;;;;6.93;4.38;;;;;;;;;;5008078;28;39052;-77
2021/05/09 04:47:36;;;;;;;8.57;4.80;;;;;;;;;;5009744;28;38795;-77
2021/05/09 04:50:03;;;;;;;9.88;4.90;;;;;;;;;;5006689;28;36860;-77
2021/05/09 04:52:30;;;;;;;7.47;4.80;;;;;;;;;;5006630;28;38154;-77
2021/05/09 04:54:56;;;;;;;5.60;4.32;;;;;;;;;;5007594;28;39500;-77
2021/05/09 04:57:22;;;;;;;6.40;4.03;;;;;;;;;;5008258;28;37923;-77
2021/05/09 04:59:49;;;;;;;9.30;5.10;;;;;;;;;;5008019;28;39510;-77
2021/05/09 05:02:15;;;;;;;8.27;4.32;;;;;;;;;;5007213;28;36793;-78
2021/05/09 05:04:41;;;;;;;7.25;4.35;;;;;;;;;;5009709;28;38723;-77
2021/05/09 05:07:08;;;;;;;8.93;4.65;;;;;;;;;;5009226;28;38733;-77
2021/05/09 05:09:34;;;;;;;7.50;4.15;;;;;;;;;;5009329;28;39844;-77
2021/05/09 05:12:01;;;;;;;9.13;4.15;;;;;;;;;;5008926;28;37725;-77
2021/05/09 05:14:27;;;;;;;7.38;4.18;;;;;;;;;;5010561;28;47216;-77
2021/05/09 05:16:53;;;;;;;7.22;4.50;;;;;;;;;;4992084;28;37293;-77
2021/05/09 05:19:20;;;;;;;9.43;4.85;;;;;;;;;;4993954;28;37455;-77
2021/05/09 05:21:46;;;;;;;6.88;4.47;;;;;;;;;;5009166;28;37305;-77
2021/05/09 05:24:16;;;;;;;10.00;4.35;;;;;;;;;;5008804;28;39293;-77
2021/05/09 05:26:42;;;;;;;7.78;4.63;;;;;;;;;;5010000;28;39528;-78
2021/05/09 05:29:09;;;;;;;9.45;4.00;;;;;;;;;;5011861;28;37971;-77
2021/05/09 05:31:35;;;;;;;6.65;4.07;;;;;;;;;;5007636;28;38479;-78
2021/05/09 05:34:02;;;;;;;5.60;4.07;;;;;;;;;;5010315;28;40211;-77
2021/05/09 05:36:31;;;;;;;6.35;4.50;;;;;;;;;;5008125;28;39916;-77
2021/05/09 05:38:58;;;;;;;8.32;4.25;;;;;;;;;;5006701;28;40180;-77
2021/05/09 05:41:25;;;;;;;6.30;4.88;;;;;;;;;;5009352;28;36988;-78
2021/05/09 05:43:51;;;;;;;6.65;4.25;;;;;;;;;;5008806;28;39482;-78
2021/05/09 05:46:18;;;;;;;5.63;4.10;;;;;;;;;;5009199;28;39765;-78
2021/05/09 05:48:44;;;;;;;7.22;4.55;;;;;;;;;;5008833;28;39038;-77
2021/05/09 05:51:11;;;;;;;6.80;3.97;;;;;;;;;;5009025;28;38133;-77
2021/05/09 05:53:37;;;;;;;5.88;3.95;;;;;;;;;;5009263;28;39490;-78
2021/05/09 05:56:03;;;;;;;6.55;3.97;;;;;;;;;;4991327;28;38725;-77
2021/05/09 05:58:30;;;;;;;6.50;5.15;;;;;;;;;;5012100;28;38323;-77
2021/05/09 06:00:56;;;;;;;6.60;4.05;;;;;;;;;;5007748;28;37123;-77
2021/05/09 06:03:23;;;;;;;8.60;4.13;;;;;;;;;;5010125;28;40469;-78
2021/05/09 06:05:50;;;;;;;8.57;3.95;;;;;;;;;;5009632;28;38300;-78
2021/05/09 06:08:17;;;;;;;5.57;4.18;;;;;;;;;;5008905;28;39751;-77
2021/05/09 06:10:44;;;;;;;7.35;3.63;;;;;;;;;;5009006;28;38687;-78
2021/05/09 06:13:11;;;;;;;6.75;3.92;;;;;;;;;;5008829;28;39367;-78
2021/05/09 06:15:37;;;;;;;6.88;3.95;;;;;;;;;;5009541;28;36978;-78
2021/05/09 06:18:04;;;;;;;7.53;3.90;;;;;;;;;;5011572;28;39091;-79
2021/05/09 06:20:30;;;;;;;5.60;4.07;;;;;;;;;;4974773;28;47289;-78
2021/05/09 06:22:57;;;;;;;6.47;4.90;;;;;;;;;;4992162;28;38840;-78
2021/05/09 06:25:24;;;;;;;8.23;4.88;;;;;;;;;;4991967;28;39805;-78
2021/05/09 06:27:51;;;;;;;5.45;4.10;;;;;;;;;;4993231;28;39024;-78
2021/05/09 06:30:18;;;;;;;8.02;5.00;;;;;;;;;;4992972;28;36655;-78
2021/05/09 06:32:44;;;;;;;6.90;4.80;;;;;;;;;;5018440;28;38985;-78
2021/05/09 06:35:10;;;;;;;8.77;5.05;;;;;;;;;;5030968;28;39769;-77
2021/05/09 06:37:37;;;;;;;8.77;5.00;;;;;;;;;;5029713;28;38332;-77
2021/05/09 06:40:07;;;;;;;7.88;4.95;;;;;;;;;;5029662;28;38710;-77
2021/05/09 06:42:33;;;;;;;8.27;5.10;;;;;;;;;;5009058;28;47206;-77
2021/05/09 06:45:05;;;;;;;7.55;5.05;;;;;;;;;;5032842;28;38931;-78
2021/05/09 06:47:32;;;;;;;6.03;4.90;;;;;;;;;;5007612;28;49256;-78
2021/05/09 06:49:58;;;;;;;7.15;5.40;;;;;;;;;;5027329;28;37222;-77
2021/05/09 06:52:24;;;;;;;7.63;4.90;;;;;;;;;;5030206;28;38464;-78
2021/05/09 06:54:51;;;;;;;5.65;4.88;;;;;;;;;;5031486;28;39338;-77
2021/05/09 06:57:17;;;;;;;6.70;4.95;;;;;;;;;;5031629;28;38367;-78
2021/05/09 06:59:44;;;;;;;9.70;4.30;;;;;;;;;;5030625;28;37450;-78
2021/05/09 07:02:10;;;;;;;8.63;4.05;;;;;;;;;;5028909;28;39857;-77
2021/05/09 07:04:37;;;;;;;4.80;3.50;;;;;;;;;;5030673;28;38928;-76
2021/05/09 07:07:03;;;;;;;9.18;4.38;;;;;;;;;;5014301;28;37032;-76
2021/05/09 07:09:29;;;;;;;9.00;4.30;;;;;;;;;;5012897;28;35540;-76
2021/05/09 07:11:56;;;;;;;8.70;3.88;;;;;;;;;;5012037;28;39456;-76
2021/05/09 07:14:22;;;;;;;8.88;4.40;;;;;;;;;;5010203;28;37271;-76
2021/05/09 07:16:49;;;;;;;7.90;4.90;;;;;;;;;;4992224;28;38698;-77
2021/05/09 07:19:17;;;;;;;5.30;4.10;;;;;;;;;;5002977;28;37331;-76
2021/05/09 07:21:49;;;;;;;8.85;4.15;;;;;;;;;;4989493;28;39709;-76
2021/05/09 07:24:16;;;;;;;6.45;4.43;;;;;;;;;;5023452;28;37562;-76
2021/05/09 07:26:43;;;;;;;5.32;3.72;;;;;;;;;;5029467;28;37277;-77
2021/05/09 07:29:09;;;;;;;5.57;4.00;;;;;;;;;;5029990;28;35597;-76
2021/05/09 07:31:40;;;;;;;5.90;4.40;;;;;;;;;;5029092;28;37785;-77
2021/05/09 07:34:07;;;;;;;9.90;4.32;;;;;;;;;;5029831;28;38938;-76
2021/05/09 07:36:34;;;;;;;7.65;4.07;;;;;;;;;;5027822;28;37041;-76
2021/05/09 07:39:00;;;;;;;6.20;4.03;;;;;;;;;;5027927;28;35602;-76
2021/05/09 07:41:27;;;;;;;8.85;4.10;;;;;;;;;;5027644;28;47544;-77
2021/05/09 07:43:53;;;;;;;9.65;3.70;;;;;;;;;;5029716;28;38491;-77
2021/05/09 07:46:19;;;;;;;7.85;4.70;;;;;;;;;;5018033;28;37452;-77
2021/05/09 07:48:47;;;;;;;6.75;4.45;;;;;;;;;;5012829;28;35603;-77
2021/05/09 07:51:13;;;;;;;6.25;4.50;;;;;;;;;;5012700;28;38940;-77
2021/05/09 07:53:40;;;;;;;7.80;4.60;;;;;;;;;;4995623;28;37297;-77
2021/05/09 07:56:06;;;;;;;6.38;4.13;;;;;;;;;;4995302;28;37127;-77
2021/05/09 07:58:33;;;;;;;7.90;4.30;;;;;;;;;;5015888;28;37201;-77
2021/05/09 08:01:03;;;;;;;5.13;4.32;;;;;;;;;;5012013;28;37696;-77
2021/05/09 08:03:29;;;;;;;6.60;4.45;;;;;;;;;;4996348;28;47217;-77
2021/05/09 08:05:56;;;;;;;4.82;4.03;;;;;;;;;;5011937;28;38308;-78
2021/05/09 08:08:30;;;;;;;6.03;4.20;;;;;;;;;;5013457;28;36523;-77
2021/05/09 08:10:57;;;;;;;5.18;3.95;;;;;;;;;;5012325;28;37789;-77
2021/05/09 08:13:23;;;;;;;9.95;4.25;;;;;;;;;;5014056;28;38064;-77
2021/05/09 08:15:50;;;;;;;5.20;3.67;;;;;;;;;;5017065;28;38115;-77
2021/05/09 08:18:21;;;;;;;4.43;3.03;;;;;;;;;;5013292;28;37973;-77
2021/05/09 08:20:47;;;;;;;5.57;3.90;;;;;;;;;;4992363;28;39366;-77
2021/05/09 08:23:14;;;;;;;4.00;3.17;;;;;;;;;;4993479;28;38388;-77
2021/05/09 08:25:40;;;;;;;5.43;3.80;;;;;;;;;;4993053;28;38283;-77
2021/05/09 08:28:07;;;;;;;7.05;4.10;;;;;;;;;;4992820;28;37078;-77
2021/05/09 08:30:33;;;;;;;6.53;3.92;;;;;;;;;;4998495;28;38829;-78
2021/05/09 08:33:00;;;;;;;7.20;3.75;;;;;;;;;;5013453;28;38589;-78
2021/05/09 08:35:27;;;;;;;5.72;3.72;;;;;;;;;;5010719;28;38307;-77
2021/05/09 08:37:53;;;;;;;7.80;3.70;;;;;;;;;;5011700;28;35993;-77
2021/05/09 08:40:19;;;;;;;5.63;3.60;;;;;;;;;;5010991;28;40100;-77
2021/05/09 08:42:50;;;;;;;4.70;3.55;;;;;;;;;;5012213;28;38256;-77
2021/05/09 08:45:17;;;;;;;6.38;3.47;;;;;;;;;;5013913;28;39060;-77
2021/05/09 08:47:44;;;;;;;4.57;3.42;;;;;;;;;;5020585;28;37183;-78
2021/05/09 08:50:15;;;;;;;6.25;3.88;;;;;;;;;;5030530;28;37606;-77
2021/05/09 08:52:42;;;;;;;4.20;3.30;;;;;;;;;;5013516;28;39294;-78
2021/05/09 08:55:10;;;;;;;5.10;3.97;;;;;;;;;;5015401;28;38440;-77
2021/05/09 08:57:36;;;;;;;7.13;4.10;;;;;;;;;;5015223;28;35595;-78
2021/05/09 09:00:06;;;;;;;7.07;4.45;;;;;;;;;;5013829;28;39943;-76
2021/05/09 09:02:32;;;;;;;8.63;4.28;;;;;;;;;;5012709;28;37620;-76
2021/05/09 09:04:59;;;;;;;7.53;3.90;;;;;;;;;;5016117;28;38898;-76
2021/05/09 09:07:42;;;;;;;6.72;3.95;;;;;;;;;;5015731;28;37064;-77
2021/05/09 09:10:09;;;;;;;4.65;4.18;;;;;;;;;;5013152;28;39341;-77
2021/05/09 09:12:38;;;;;;;5.30;4.45;;;;;;;;;;5014977;28;39239;-76
2021/05/09 09:15:05;;;;;;;8.35;3.92;;;;;;;;;;5013352;28;37476;-77
2021/05/09 09:17:31;;;;;;;4.78;4.38;;;;;;;;;;5016000;28;36986;-77
2021/05/09 09:20:08;;;;;;;6.28;4.03;;;;;;;;;;5012752;28;38927;-77
2021/05/09 09:22:53;;;;;;;5.78;3.58;;;;;;;;;;4988548;28;47295;-77
2021/05/09 09:25:20;;;;;;;4.00;3.60;;;;;;;;;;5009752;28;38724;-77
2021/05/09 09:27:47;;;;;;;6.55;4.10;;;;;;;;;;5012292;28;36582;-78
2021/05/09 09:30:15;;;;;;;4.82;3.55;;;;;;;;;;5008840;28;38904;-77
2021/05/09 09:32:42;;;;;;;6.55;3.88;;;;;;;;;;5012903;28;40293;-77
2021/05/09 09:35:27;;;;;;;4.57;4.00;;;;;;;;;;5011268;28;38612;-77
2021/05/09 09:37:54;;;;;;;9.82;3.50;;;;;;;;;;5007885;28;35769;-77
2021/05/09 09:40:20;;;;;;;4.57;3.28;;;;;;;;;;5010069;28;39094;-77
2021/05/09 09:42:48;;;;;;;5.03;3.33;;;;;;;;;;5009605;28;39035;-80
2021/05/09 09:45:15;;;;;;;5.38;2.75;;;;;;;;;;5010946;28;39193;-77
2021/05/09 09:47:52;;;;;;;3.72;2.88;;;;;;;;;;4992929;28;37638;-78
2021/05/09 09:50:37;;;;;;;5.28;2.90;;;;;;;;;;4991641;28;40483;-78
2021/05/09 09:53:23;;;;;;;2.58;2.30;;;;;;;;;;4975071;28;39286;-77
2021/05/09 09:56:06;;;;;;;5.22;2.72;;;;;;;;;;4980942;28;38329;-78
2021/05/09 09:58:48;;;;;;;3.65;2.53;;;;;;;;;;5011243;28;36831;-78
2021/05/09 10:01:18;;;;;;;5.75;2.58;;;;;;;;;;5008142;28;40677;-78
2021/05/09 10:03:45;;;;;;;3.38;2.40;;;;;;;;;;5011614;28;38496;-77
2021/05/09 10:06:11;;;;;;;4.05;2.65;;;;;;;;;;5009579;28;40127;-78
2021/05/09 10:08:38;;;;;;;8.95;2.67;;;;;;;;;;5012364;28;37272;-78
2021/05/09 10:11:05;;;;;;;4.93;2.75;;;;;;;;;;5009338;28;39818;-78
2021/05/09 10:13:32;;;;;;;3.20;2.38;;;;;;;;;;5011472;28;39138;-78
2021/05/09 10:15:59;;;;;;;3.90;2.60;;;;;;;;;;5012752;28;38868;-78
2021/05/09 10:18:26;;;;;;;4.75;2.40;;;;;;;;;;5012301;28;37926;-79
2021/05/09 10:20:53;;;;;;;3.63;2.80;;;;;;;;;;4993677;28;39888;-79
2021/05/09 10:23:20;;;;;;;8.05;2.75;;;;;;;;;;5012360;28;39900;-78
2021/05/09 10:25:57;;;;;;;6.35;2.30;;;;;;;;;;4994977;28;38279;-78
2021/05/09 10:28:43;;;;;;;5.00;2.28;;;;;;;;;;5011128;28;35393;-77
2021/05/09 10:31:26;;;;;;;3.08;2.15;;;;;;;;;;5012181;28;40039;-77
2021/05/09 10:33:55;;;;;;;3.65;2.10;;;;;;;;;;5011666;28;37963;-78
2021/05/09 10:36:22;;;;;;;3.92;2.35;;;;;;;;;;5010808;28;37356;-77
2021/05/09 10:39:07;;;;;;;3.92;2.60;;;;;;;;;;5012697;28;35591;-78
2021/05/09 10:41:38;;;;;;;5.82;3.30;;;;;;;;;;5014961;28;48714;-77
2021/05/09 10:44:23;;;;;;;4.60;2.72;;;;;;;;;;5016498;28;39837;-77
2021/05/09 10:47:02;;;;;;;3.63;2.58;;;;;;;;;;5013058;28;36997;-78
2021/05/09 10:49:29;;;;;;;4.93;3.03;;;;;;;;;;5007952;28;50248;-77
2021/05/09 10:51:55;;;;;;;4.55;2.80;;;;;;;;;;5008955;28;38886;-78
2021/05/09 10:54:23;;;;;;;7.50;2.90;;;;;;;;;;4992123;28;37664;-76
2021/05/09 10:56:50;;;;;;;3.78;2.53;;;;;;;;;;4994444;28;37288;-78
2021/05/09 10:59:16;;;;;;;3.08;2.60;;;;;;;;;;4994790;28;35784;-78
2021/05/09 11:01:43;;;;;;;4.78;2.83;;;;;;;;;;5011211;28;38790;-78
2021/05/09 11:04:10;;;;;;;3.95;2.80;;;;;;;;;;5019766;28;38661;-78
2021/05/09 11:06:39;;;;;;;3.20;2.90;;;;;;;;;;5031866;28;38327;-79
2021/05/09 11:09:10;;;;;;;5.03;2.60;;;;;;;;;;5030074;28;36077;-78
2021/05/09 11:11:37;;;;;;;5.70;2.63;;;;;;;;;;5033410;28;39415;-79
2021/05/09 11:14:14;;;;;;;3.75;2.38;;;;;;;;;;5028228;28;37454;-79
2021/05/09 11:16:45;;;;;;;4.43;2.30;;;;;;;;;;5010597;28;37263;-78
2021/05/09 11:19:16;;;;;;;6.03;2.30;;;;;;;;;;5010941;28;36231;-78
2021/05/09 11:21:44;;;;;;;4.07;2.60;;;;;;;;;;5012207;28;37987;-79
2021/05/09 11:24:11;;;;;;;3.13;2.53;;;;;;;;;;5015702;28;39243;-78
2021/05/09 11:26:42;;;;;;;4.03;2.72;;;;;;;;;;5017561;28;39284;-78
2021/05/09 11:29:12;;;;;;;5.15;3.63;;;;;;;;;;4997669;28;35943;-78
2021/05/09 11:31:41;;;;;;;5.20;2.83;;;;;;;;;;5015144;28;39738;-79
2021/05/09 11:34:07;;;;;;;10.93;3.10;;;;;;;;;;4997659;28;37467;-78
2021/05/09 11:36:37;;;;;;;3.33;2.72;;;;;;;;;;5017019;28;38207;-79
2021/05/09 11:39:35;;;;;;;4.82;2.50;;;;;;;;;;5017993;28;37236;-78
2021/05/09 11:42:03;;;;;;;6.28;3.05;;;;;;;;;;5017741;28;39182;-78
2021/05/09 11:44:42;;;;;;;2.83;2.53;;;;;;;;;;5019938;28;37598;-78
2021/05/09 11:47:10;;;;;;;3.83;2.72;;;;;;;;;;4985126;28;38635;-78
2021/05/09 11:49:37;;;;;;;5.97;2.55;;;;;;;;;;4984964;28;35848;-78
2021/05/09 11:52:04;;;;;;;5.68;2.75;;;;;;;;;;5001307;28;39275;-78
2021/05/09 11:54:33;;;;;;;6.05;2.80;;;;;;;;;;4991167;28;38063;-78
2021/05/09 11:57:00;;;;;;;4.43;2.30;;;;;;;;;;5022542;28;38729;-78
2021/05/09 11:59:40;;;;;;;7.43;2.50;;;;;;;;;;5042528;28;48325;-79
2021/05/09 12:02:12;;;;;;;4.10;2.63;;;;;;;;;;5022447;28;37842;-77
2021/05/09 12:04:39;;;;;;;3.13;2.30;;;;;;;;;;5013928;28;38021;-78
2021/05/09 12:07:07;;;;;;;4.65;2.53;;;;;;;;;;5000950;28;37054;-79
2021/05/09 12:09:34;;;;;;;8.18;2.63;;;;;;;;;;5003792;28;35954;-79
2021/05/09 12:12:01;;;;;;;5.85;2.40;;;;;;;;;;5010396;28;38257;-79
2021/05/09 12:14:28;;;;;;;5.22;2.70;;;;;;;;;;5016055;28;47566;-78
2021/05/09 12:16:55;;;;;;;4.05;2.50;;;;;;;;;;4999631;28;38718;-78
2021/05/09 12:19:35;;;;;;;6.63;2.67;;;;;;;;;;5001865;28;38161;-78
2021/05/09 12:22:04;;;;;;;3.67;2.42;;;;;;;;;;4980077;28;38970;-78
2021/05/09 12:24:39;;;;;;;5.95;2.90;;;;;;;;;;4983805;28;37830;-79
2021/05/09 12:27:08;;;;;;;4.88;2.72;;;;;;;;;;4999682;28;39023;-78
2021/05/09 12:29:44;;;;;;;5.65;2.67;;;;;;;;;;5021288;28;37886;-78
2021/05/09 12:32:17;;;;;;;7.53;2.80;;;;;;;;;;5019931;28;39553;-78
2021/05/09 12:35:02;;;;;;;4.18;2.50;;;;;;;;;;5002606;28;38886;-79
2021/05/09 12:37:29;;;;;;;4.70;2.60;;;;;;;;;;5020173;28;41219;-78
2021/05/09 12:40:15;;;;;;;6.55;2.25;;;;;;;;;;5000843;28;37647;-79
2021/05/09 12:43:00;;;;;;;4.00;1.75;;;;;;;;;;5008757;28;48398;-78
2021/05/09 12:45:31;;;;;;;4.72;2.17;;;;;;;;;;4994045;28;46840;-78
2021/05/09 12:48:03;;;;;;;10.57;2.85;;;;;;;;;;4993736;28;38630;-79
2021/05/09 12:50:45;;;;;;;6.95;3.00;;;;;;;;;;5009561;28;49280;-78
2021/05/09 12:53:11;;;;;;;7.30;2.38;;;;;;;;;;5010581;28;39958;-78
2021/05/09 12:55:37;;;;;;;6.22;2.08;;;;;;;;;;5010228;28;38159;-79
2021/05/09 12:58:05;;;;;;;6.00;2.50;;;;;;;;;;4995667;28;39796;-78
2021/05/09 13:00:31;;;;;;;8.68;2.58;;;;;;;;;;5013855;28;37259;-79
2021/05/09 13:02:58;;;;;;;5.68;2.45;;;;;;;;;;4997626;28;39169;-78
2021/05/09 13:05:25;;;;;;;7.50;2.25;;;;;;;;;;5013641;28;38698;-78
2021/05/09 13:07:53;;;;;;;7.97;2.38;;;;;;;;;;4996071;28;39516;-79
2021/05/09 13:10:23;;;;;;;8.68;2.95;;;;;;;;;;4996596;28;37021;-78
2021/05/09 13:12:54;;;;;;;5.03;2.83;;;;;;;;;;4994180;28;38001;-78
2021/05/09 13:15:20;;;;;;;4.03;2.60;;;;;;;;;;5012609;28;38725;-78
2021/05/09 13:17:47;;;;;;;5.28;2.75;;;;;;;;;;4996921;28;37181;-78
2021/05/09 13:20:14;;;;;;;2.75;2.10;;;;;;;;;;5000890;28;35876;-78
2021/05/09 13:22:41;;;;;;;6.47;2.72;;;;;;;;;;5014150;28;38190;-78
2021/05/09 13:25:08;;;;;;;7.20;2.40;;;;;;;;;;5004265;28;38098;-78
2021/05/09 13:27:34;;;;;;;6.00;2.65;;;;;;;;;;4993207;28;38837;-78
2021/05/09 13:30:03;;;;;;;3.83;2.42;;;;;;;;;;4989324;28;37014;-78
2021/05/09 13:32:30;;;;;;;6.47;2.67;;;;;;;;;;4987644;28;48446;-77
2021/05/09 13:34:56;;;;;;;4.90;2.80;;;;;;;;;;4970659;28;38960;-78
2021/05/09 13:37:23;;;;;;;4.20;2.97;;;;;;;;;;4997171;28;39926;-79
2021/05/09 13:39:49;;;;;;;5.80;2.90;;;;;;;;;;4990412;28;36800;-80
2021/05/09 13:42:16;;;;;;;5.35;2.90;;;;;;;;;;5006794;28;40281;-78
2021/05/09 13:44:42;;;;;;;6.18;2.80;;;;;;;;;;4994123;28;37567;-78
2021/05/09 13:47:09;;;;;;;4.53;2.58;;;;;;;;;;5003981;28;38577;-80
2021/05/09 13:49:35;;;;;;;5.47;2.60;;;;;;;;;;5006139;28;35533;-79
2021/05/09 13:52:02;;;;;;;5.93;2.40;;;;;;;;;;5003703;28;37555;-78
2021/05/09 13:54:28;;;;;;;4.88;2.58;;;;;;;;;;5018122;28;37409;-78
2021/05/09 13:56:54;;;;;;;5.13;2.70;;;;;;;;;;5016855;28;37435;-78
2021/05/09 13:59:21;;;;;;;5.00;2.72;;;;;;;;;;5006261;28;37434;-78
2021/05/09 14:01:47;;;;;;;6.18;3.00;;;;;;;;;;5006317;28;37558;-79
2021/05/09 14:04:15;;;;;;;4.47;2.70;;;;;;;;;;5006345;28;38451;-78
2021/05/09 14:06:43;;;;;;;5.47;2.80;;;;;;;;;;5006403;28;36934;-78
2021/05/09 14:09:11;;;;;;;5.03;2.53;;;;;;;;;;5009094;28;36219;-78
2021/05/09 14:11:37;;;;;;;5.57;2.33;;;;;;;;;;5018916;28;39080;-77
2021/05/09 14:14:03;;;;;;;4.85;2.88;;;;;;;;;;5025148;28;38463;-78
2021/05/09 14:16:30;;;;;;;6.00;2.85;;;;;;;;;;4991066;28;38402;-78
2021/05/09 14:18:57;;;;;;;7.75;2.47;;;;;;;;;;5008661;28;37829;-77
2021/05/09 14:21:24;;;;;;;4.68;2.33;;;;;;;;;;4989912;28;38737;-77
2021/05/09 14:23:50;;;;;;;6.60;2.50;;;;;;;;;;5007388;28;38723;-79
2021/05/09 14:26:17;;;;;;;4.63;2.90;;;;;;;;;;5006272;28;38377;-78
2021/05/09 14:28:43;;;;;;;6.18;2.58;;;;;;;;;;5007290;28;37218;-81
2021/05/09 14:31:09;;;;;;;4.28;2.85;;;;;;;;;;5009672;28;39268;-78
2021/05/09 14:33:36;;;;;;;8.95;2.60;;;;;;;;;;5007667;28;37630;-79
2021/05/09 14:36:02;;;;;;;5.30;2.50;;;;;;;;;;5008800;28;38892;-77
2021/05/09 14:38:29;;;;;;;7.93;2.42;;;;;;;;;;5006167;28;47494;-77
2021/05/09 14:40:55;;;;;;;5.18;2.47;;;;;;;;;;5007096;28;39067;-79
2021/05/09 14:43:22;;;;;;;6.13;2.80;;;;;;;;;;5006350;28;38721;-77
2021/05/09 14:45:48;;;;;;;4.70;2.50;;;;;;;;;;5005721;28;37209;-78